Time;durP1;ratioP1;P1;durP2;ratioP2;P2;SDS_P1;SDS_P2;PMS_P1;PMS_P2;Temp;Humidity;BMP_temperature;BMP_pressure;BME280_temperature;BME280_humidity;BME280_pressure;Samples;Min_cycle;Max_cycle;Signal;HPM_P1;HPM_P2
2023/08/28 07:15:35;;;;;;;10.55;9.48;;;;;;;14.15;100.00;101030.03;5069160;28;20393;-69
2023/08/28 07:18:00;;;;;;;12.30;9.57;;;;;;;14.19;100.00;101033.88;5068389;28;20041;-69
2023/08/28 07:20:25;;;;;;;10.48;9.48;;;;;;;14.27;100.00;101036.22;5069464;28;20082;-71
2023/08/28 07:22:53;;;;;;;10.27;8.30;;;;;;;14.44;100.00;101035.41;5069529;28;20087;-71
2023/08/28 07:25:21;;;;;;;18.02;9.50;;;;;;;14.48;100.00;101034.69;5068427;28;20520;-69
2023/08/28 07:27:47;;;;;;;11.63;8.48;;;;;;;14.51;100.00;101030.66;5061676;28;20033;-70
2023/08/28 07:30:13;;;;;;;10.07;8.52;;;;;;;14.70;100.00;101021.19;5049271;28;20100;-69
2023/08/28 07:32:39;;;;;;;11.15;8.48;;;;;;;14.80;100.00;101022.41;5047579;28;20045;-71
2023/08/28 07:35:05;;;;;;;9.18;8.00;;;;;;;14.86;100.00;101018.69;5057087;28;20052;-72
2023/08/28 07:37:33;;;;;;;8.75;7.45;;;;;;;14.92;100.00;101017.69;5068795;28;20125;-71
2023/08/28 07:39:58;;;;;;;11.60;7.80;;;;;;;15.13;100.00;101012.53;5069023;28;20033;-70
2023/08/28 07:42:23;;;;;;;9.10;7.50;;;;;;;15.15;100.00;101022.09;5061741;28;20120;-70
2023/08/28 07:44:49;;;;;;;11.05;8.20;;;;;;;15.30;100.00;101016.03;5048473;28;20033;-70
2023/08/28 07:47:14;;;;;;;9.55;7.18;;;;;;;15.26;100.00;101020.34;5048990;28;20090;-70
2023/08/28 07:49:41;;;;;;;10.18;7.13;;;;;;;15.37;100.00;101013.94;5047340;28;20029;-70
2023/08/28 07:52:07;;;;;;;9.25;7.38;;;;;;;15.49;100.00;101015.72;5050674;28;20031;-71
2023/08/28 07:54:32;;;;;;;9.88;6.85;;;;;;;15.50;100.00;101020.91;5059516;28;20034;-72
2023/08/28 07:56:58;;;;;;;9.32;7.43;;;;;;;15.53;100.00;101027.78;5049061;28;20520;-72
2023/08/28 07:59:23;;;;;;;11.20;7.05;;;;;;;15.55;100.00;101025.59;5049107;28;20029;-74
2023/08/28 08:01:48;;;;;;;9.27;7.60;;;;;;;15.64;100.00;101023.25;5053047;28;20029;-71
2023/08/28 08:04:14;;;;;;;10.30;7.75;;;;;;;15.68;100.00;101027.94;5052855;28;20037;-73
2023/08/28 08:06:39;;;;;;;8.13;7.03;;;;;;;15.74;100.00;101024.19;5048524;28;20137;-69
2023/08/28 08:09:05;;;;;;;7.85;7.00;;;;;;;15.77;100.00;101023.72;5048959;28;20103;-69
2023/08/28 08:11:32;;;;;;;12.48;7.55;;;;;;;15.88;100.00;101023.84;5048852;28;20072;-69
2023/08/28 08:13:57;;;;;;;11.07;7.00;;;;;;;15.93;100.00;101026.63;5048603;28;20520;-71
2023/08/28 08:16:23;;;;;;;7.82;7.13;;;;;;;15.95;100.00;101024.47;5052579;28;20047;-72
2023/08/28 08:18:48;;;;;;;9.98;7.75;;;;;;;15.97;100.00;101025.03;5048253;28;20037;-71
2023/08/28 08:21:15;;;;;;;8.48;6.45;;;;;;;15.95;100.00;101024.47;5048382;28;20026;-71
2023/08/28 08:23:40;;;;;;;9.15;6.78;;;;;;;15.94;100.00;101028.25;5048133;28;20044;-71
2023/08/28 08:26:06;;;;;;;7.10;6.15;;;;;;;15.98;100.00;101023.94;5039939;28;20033;-72
2023/08/28 08:28:32;;;;;;;6.85;6.00;;;;;;;15.99;100.00;101027.50;5034277;28;20064;-71
2023/08/28 08:30:57;;;;;;;7.05;5.35;;;;;;;16.01;100.00;101026.16;5034371;28;20114;-70
2023/08/28 08:33:22;;;;;;;6.65;5.45;;;;;;;15.95;100.00;101021.72;5046766;28;20114;-72
2023/08/28 08:35:48;;;;;;;7.60;6.00;;;;;;;15.98;100.00;101029.41;5053876;28;20029;-72
2023/08/28 08:38:13;;;;;;;8.85;6.10;;;;;;;15.99;100.00;101031.06;5055240;28;20087;-74
2023/08/28 08:40:40;;;;;;;9.40;6.65;;;;;;;15.98;100.00;101050.44;5054503;28;20056;-72
2023/08/28 08:43:06;;;;;;;8.70;6.57;;;;;;;16.01;100.00;101045.28;5054922;28;20029;-71
2023/08/28 08:45:36;;;;;;;6.88;6.10;;;;;;;15.98;100.00;101045.78;5054961;28;20050;-71
2023/08/28 08:48:05;;;;;;;8.77;6.43;;;;;;;15.96;100.00;101042.50;5042813;28;20427;-72
2023/08/28 08:50:35;;;;;;;7.70;5.80;;;;;;;15.97;100.00;101046.84;5034227;28;20029;-71
2023/08/28 08:53:06;;;;;;;8.48;5.97;;;;;;;16.06;100.00;101048.06;5034750;28;20044;-71
2023/08/28 08:55:40;;;;;;;8.85;4.72;;;;;;;16.13;100.00;101045.13;5034728;28;20045;-71
2023/08/28 08:58:10;;;;;;;6.90;5.40;;;;;;;16.20;100.00;101048.47;5044506;28;20078;-71
2023/08/28 09:00:38;;;;;;;5.20;4.70;;;;;;;16.20;100.00;101047.63;5052124;28;20068;-72
2023/08/28 09:03:05;;;;;;;5.68;4.50;;;;;;;16.18;100.00;101045.16;5054707;28;20082;-72
2023/08/28 09:05:31;;;;;;;6.03;3.97;;;;;;;16.19;100.00;101051.47;5034812;28;20029;-72
2023/08/28 09:07:59;;;;;;;4.70;4.15;;;;;;;16.19;100.00;101049.56;5034414;28;20029;-71
2023/08/28 09:10:24;;;;;;;5.90;3.42;;;;;;;16.28;100.00;101039.81;5034303;28;20392;-73
2023/08/28 09:12:51;;;;;;;4.50;3.45;;;;;;;16.29;100.00;101041.47;5039621;28;20121;-70
2023/08/28 09:15:17;;;;;;;3.83;3.35;;;;;;;16.35;100.00;101031.41;5051859;28;20042;-70
2023/08/28 09:17:43;;;;;;;3.75;3.38;;;;;;;16.38;100.00;101033.63;5045389;28;20028;-70
2023/08/28 09:20:19;;;;;;;3.72;2.92;;;;;;;16.41;100.00;101030.38;5054380;28;20032;-69
2023/08/28 09:22:53;;;;;;;5.57;3.40;;;;;;;16.57;100.00;101036.78;5046972;28;20029;-70
2023/08/28 09:25:20;;;;;;;3.17;2.88;;;;;;;16.63;100.00;101041.19;5034315;28;20033;-68
2023/08/28 09:27:48;;;;;;;5.18;2.97;;;;;;;16.68;100.00;101034.94;5033953;28;20034;-71
2023/08/28 09:30:31;;;;;;;3.63;2.97;;;;;;;16.76;100.00;101029.00;5032541;28;20041;-69
2023/08/28 09:33:01;;;;;;;2.97;2.78;;;;;;;16.78;100.00;101037.75;5033906;28;20032;-72
2023/08/28 09:35:28;;;;;;;4.38;2.78;;;;;;;16.79;100.00;101044.06;5035683;28;20041;-69
2023/08/28 09:38:01;;;;;;;3.25;2.63;;;;;;;16.81;100.00;101037.25;5052518;28;20039;-70
2023/08/28 09:40:32;;;;;;;2.75;2.50;;;;;;;16.76;100.00;101039.94;5053955;28;20033;-70
2023/08/28 09:42:58;;;;;;;5.03;3.03;;;;;;;16.88;100.00;101047.16;5052369;28;20599;-74
2023/08/28 09:45:29;;;;;;;3.78;3.08;;;;;;;16.94;100.00;101046.94;5045241;28;20041;-72
2023/08/28 09:47:55;;;;;;;3.50;2.90;;;;;;;16.92;100.00;101037.34;5033541;28;20033;-71
2023/08/28 09:50:27;;;;;;;3.25;3.00;;;;;;;16.92;100.00;101048.28;5033502;28;20158;-72
2023/08/28 09:52:52;;;;;;;4.47;3.00;;;;;;;17.03;100.00;101040.97;5033179;28;20033;-70
2023/08/28 09:55:18;;;;;;;3.42;2.70;;;;;;;17.13;100.00;101046.50;5033276;28;20037;-71
2023/08/28 09:57:43;;;;;;;3.33;3.03;;;;;;;17.11;100.00;101046.78;5039636;28;20106;-71
2023/08/28 10:00:11;;;;;;;3.35;3.00;;;;;;;17.27;100.00;101044.13;5044322;28;20104;-72
2023/08/28 10:02:38;;;;;;;4.75;3.30;;;;;;;17.27;100.00;101044.13;5031178;28;20040;-72
2023/08/28 10:05:06;;;;;;;6.22;3.22;;;;;;;17.37;100.00;101055.13;5031756;28;20428;-71
2023/08/28 10:07:32;;;;;;;4.15;2.38;;;;;;;17.33;100.00;101048.53;5033443;28;20036;-71
2023/08/28 10:10:01;;;;;;;2.35;1.65;;;;;;;17.31;100.00;101047.97;5033274;28;20037;-71
2023/08/28 10:12:28;;;;;;;1.73;1.60;;;;;;;17.34;100.00;101051.00;5032951;28;20033;-70
2023/08/28 10:14:54;;;;;;;3.13;1.88;;;;;;;17.44;100.00;101046.69;5032950;28;20134;-70
2023/08/28 10:17:23;;;;;;;6.25;2.90;;;;;;;17.53;100.00;101036.88;5036394;28;20476;-69
2023/08/28 10:19:58;;;;;;;4.78;2.88;;;;;;;17.62;100.00;101029.78;5036094;28;20036;-72
2023/08/28 10:22:25;;;;;;;2.90;1.98;;;;;;;17.74;100.00;101036.94;5031893;28;20029;-73
2023/08/28 10:24:52;;;;;;;4.90;2.47;;;;;;;17.70;100.00;101042.13;5032642;28;20048;-74
2023/08/28 10:27:19;;;;;;;3.08;1.80;;;;;;;17.71;100.00;101044.59;5052715;28;20051;-70
2023/08/28 10:29:46;;;;;;;2.08;1.45;;;;;;;17.79;100.00;101048.72;5048876;28;20494;-71
2023/08/28 10:32:14;;;;;;;2.67;1.40;;;;;;;17.87;100.00;101036.44;5041661;28;20407;-71
2023/08/28 10:34:40;;;;;;;1.98;1.75;;;;;;;17.92;100.00;101039.25;5045272;28;20021;-71
2023/08/28 10:37:09;;;;;;;2.60;1.85;;;;;;;17.95;100.00;101044.16;5057087;28;20453;-72
2023/08/28 10:39:43;;;;;;;4.55;2.10;;;;;;;17.99;100.00;101037.03;5032943;28;20040;-71
2023/08/28 10:42:10;;;;;;;2.78;1.60;;;;;;;17.98;100.00;101038.16;5037109;28;20090;-72
2023/08/28 10:44:37;;;;;;;2.67;1.50;;;;;;;17.92;100.00;101043.88;5060321;28;20104;-70
2023/08/28 10:47:02;;;;;;;2.95;2.30;;;;;;;17.94;100.00;101047.19;5057982;28;20067;-70
2023/08/28 10:49:28;;;;;;;3.15;2.42;;;;;;;17.83;100.00;101041.63;5060127;28;20464;-70
2023/08/28 10:52:09;;;;;;;2.75;2.10;;;;;;;17.87;100.00;101045.50;5065336;28;20028;-74
2023/08/28 10:54:39;;;;;;;2.72;2.30;;;;;;;17.82;100.00;101050.13;5064608;28;20481;-70
2023/08/28 10:57:21;;;;;;;3.67;2.00;;;;;;;17.86;100.00;101041.09;5059549;28;20036;-73
2023/08/28 10:59:47;;;;;;;4.28;2.22;;;;;;;17.86;100.00;101034.78;5067113;28;20025;-70
2023/08/28 11:02:13;;;;;;;2.28;1.85;;;;;;;17.86;100.00;101032.88;5067251;28;20039;-70
2023/08/28 11:04:39;;;;;;;2.13;1.90;;;;;;;17.86;100.00;101045.72;5071224;28;20024;-69
2023/08/28 11:07:23;;;;;;;2.28;2.05;;;;;;;17.86;100.00;101035.63;5060545;28;20037;-69
2023/08/28 11:09:49;;;;;;;3.40;2.22;;;;;;;17.95;100.00;101032.38;5040943;28;20039;-68
2023/08/28 11:12:15;;;;;;;3.67;2.38;;;;;;;18.08;100.00;101026.38;5031154;28;20443;-69
2023/08/28 11:14:42;;;;;;;2.28;2.08;;;;;;;18.16;100.00;101035.97;5032323;28;20049;-69
2023/08/28 11:17:07;;;;;;;2.45;2.25;;;;;;;18.21;100.00;101027.78;5030727;28;20208;-68
2023/08/28 11:19:55;;;;;;;1.70;1.60;;;;;;;18.23;100.00;101020.91;5032415;28;20033;-68
2023/08/28 11:22:46;;;;;;;5.78;1.75;;;;;;;18.26;100.00;101026.97;5032375;28;20025;-69
2023/08/28 11:25:13;;;;;;;2.08;1.85;;;;;;;18.17;100.00;101023.94;5045266;28;20438;-69
2023/08/28 11:27:56;;;;;;;3.03;2.30;;;;;;;18.14;100.00;101017.06;5051307;28;20053;-69
2023/08/28 11:30:22;;;;;;;2.55;2.30;;;;;;;18.10;100.00;101029.69;5035432;28;20032;-69
2023/08/28 11:32:51;;;;;;;2.97;2.13;;;;;;;18.12;100.00;101022.03;5052046;28;20033;-69
2023/08/28 11:35:17;;;;;;;5.38;2.90;;;;;;;18.10;100.00;101026.97;5052127;28;20028;-69
2023/08/28 11:37:48;;;;;;;6.20;3.10;;;;;;;18.17;100.00;101023.94;5052201;28;20033;-69
2023/08/28 11:40:18;;;;;;;;;;;;;;;18.26;100.00;101026.97;5052684;28;20064;-69
2023/08/28 11:42:46;;;;;;;2.47;1.70;;;;;;;18.16;100.00;101027.75;5037464;28;19959;-69
2023/08/28 11:45:18;;;;;;;4.07;2.40;;;;;;;18.14;100.00;101029.97;5031818;28;20083;-69
2023/08/28 11:47:44;;;;;;;2.70;2.50;;;;;;;18.29;100.00;101024.50;5032250;28;20036;-69
2023/08/28 11:50:09;;;;;;;4.65;2.70;;;;;;;18.40;100.00;101012.47;5031617;28;20025;-69
2023/08/28 11:52:34;;;;;;;3.55;2.75;;;;;;;18.40;100.00;101025.31;5032174;28;20030;-70
2023/08/28 11:55:04;;;;;;;5.57;2.70;;;;;;;18.46;100.00;101016.00;5033362;28;20025;-69
2023/08/28 11:57:31;;;;;;;2.40;2.20;;;;;;;18.41;100.00;101018.75;5038915;28;20111;-69
2023/08/28 11:59:59;;;;;;;3.17;2.30;;;;;;;18.39;100.00;101026.44;5051695;28;20075;-70
2023/08/28 12:02:25;;;;;;;3.00;2.58;;;;;;;18.32;100.00;101028.63;5050766;28;20028;-70
2023/08/28 12:04:51;;;;;;;3.67;2.10;;;;;;;18.29;100.00;101031.91;5053047;28;20034;-71
2023/08/28 12:07:27;;;;;;;3.55;2.40;;;;;;;18.22;100.00;101030.25;5047199;28;20059;-69
2023/08/28 12:09:54;;;;;;;4.07;2.00;;;;;;;18.24;100.00;101029.97;5046757;28;20388;-68
2023/08/28 12:12:20;;;;;;;3.25;2.42;;;;;;;18.28;100.00;101033.00;5053443;28;20455;-69
2023/08/28 12:14:47;;;;;;;5.35;2.95;;;;;;;18.18;100.00;101037.38;5055374;28;20049;-69
2023/08/28 12:17:14;;;;;;;3.50;3.20;;;;;;;18.12;100.00;101032.97;5045259;28;20041;-68
2023/08/28 12:19:40;;;;;;;3.13;2.83;;;;;;;18.09;100.00;101029.94;5044431;28;20116;-70
2023/08/28 12:22:06;;;;;;;4.55;2.83;;;;;;;18.08;100.00;101031.84;5053897;28;20431;-68
2023/08/28 12:24:32;;;;;;;6.40;2.58;;;;;;;18.03;100.00;101034.59;5067695;28;20059;-69
2023/08/28 12:26:57;;;;;;;3.97;2.78;;;;;;;18.00;100.00;101032.41;5058457;28;20147;-70
2023/08/28 12:29:25;;;;;;;5.70;2.70;;;;;;;17.99;100.00;101038.97;5044818;28;20030;-69
2023/08/28 12:31:51;;;;;;;6.90;2.60;;;;;;;17.98;100.00;101035.41;5054801;28;20029;-69
2023/08/28 12:34:16;;;;;;;4.43;2.47;;;;;;;17.96;100.00;101040.31;5054956;28;20475;-69
2023/08/28 12:36:45;;;;;;;3.88;2.40;;;;;;;18.00;100.00;101030.47;5055155;28;20515;-69
2023/08/28 12:39:20;;;;;;;4.28;2.50;;;;;;;18.08;100.00;101036.53;5054916;28;20456;-68
2023/08/28 12:41:51;;;;;;;2.95;2.47;;;;;;;18.13;100.00;101039.25;5055163;28;20111;-68
2023/08/28 12:44:17;;;;;;;3.38;2.50;;;;;;;18.12;100.00;101038.44;5049919;28;20033;-69
2023/08/28 12:46:42;;;;;;;3.97;2.65;;;;;;;18.10;100.00;101037.91;5035058;28;20025;-69
2023/08/28 12:49:10;;;;;;;4.65;2.60;;;;;;;18.15;100.00;101032.44;5050762;28;20037;-69
2023/08/28 12:51:35;;;;;;;3.30;2.80;;;;;;;18.08;100.00;101037.34;5054920;28;20029;-68
2023/08/28 12:54:01;;;;;;;3.97;2.95;;;;;;;18.08;100.00;101037.34;5054300;28;20357;-68
2023/08/28 12:56:26;;;;;;;3.95;3.10;;;;;;;18.05;100.00;101029.66;5055086;28;20025;-69
2023/08/28 12:58:51;;;;;;;4.30;2.38;;;;;;;18.03;100.00;101034.59;5051574;28;20033;-69
2023/08/28 13:01:17;;;;;;;3.63;2.97;;;;;;;18.02;100.00;101041.16;5032278;28;20029;-70
2023/08/28 13:03:42;;;;;;;4.38;3.20;;;;;;;18.02;100.00;101038.41;5034460;28;20117;-71
2023/08/28 13:06:08;;;;;;;5.82;3.53;;;;;;;17.99;100.00;101033.50;5054136;28;20057;-70
2023/08/28 13:08:33;;;;;;;3.50;3.20;;;;;;;18.06;100.00;101039.53;5054858;28;20087;-70
2023/08/28 13:10:58;;;;;;;3.90;3.03;;;;;;;18.06;100.00;101040.34;5052342;28;20029;-70
2023/08/28 13:13:25;;;;;;;4.70;2.70;;;;;;;18.09;100.00;101039.00;5054412;28;20037;-70
2023/08/28 13:15:55;;;;;;;4.07;2.83;;;;;;;18.19;100.00;101038.16;5053136;28;20048;-68
2023/08/28 13:18:20;;;;;;;4.03;2.75;;;;;;;18.28;100.00;101043.94;5041309;28;20056;-70
2023/08/28 13:20:46;;;;;;;3.35;2.80;;;;;;;18.35;100.00;101039.03;5034382;28;20033;-70
2023/08/28 13:23:11;;;;;;;3.80;2.40;;;;;;;18.42;100.00;101026.69;5034147;28;20025;-72
2023/08/28 13:25:36;;;;;;;2.85;2.50;;;;;;;18.52;100.00;101025.06;5034346;28;20041;-69
2023/08/28 13:28:02;;;;;;;3.70;2.40;;;;;;;18.57;100.00;101028.63;5033693;28;20029;-69
2023/08/28 13:30:27;;;;;;;3.85;2.00;;;;;;;18.72;100.00;101024.22;5044510;28;20032;-70
2023/08/28 13:32:54;;;;;;;3.20;1.98;;;;;;;18.95;100.00;101026.41;5034725;28;20116;-68
2023/08/28 13:35:20;;;;;;;2.90;2.03;;;;;;;19.11;100.00;101018.16;5039602;28;20032;-69
2023/08/28 13:37:45;;;;;;;6.15;2.20;;;;;;;19.15;100.00;101019.25;5067196;28;20107;-68
2023/08/28 13:40:11;;;;;;;1.73;1.63;;;;;;;19.06;100.00;101016.25;5073421;28;20024;-67
2023/08/28 13:42:37;;;;;;;2.17;1.65;;;;;;;19.10;100.00;101024.75;5073936;28;20025;-70
2023/08/28 13:45:03;;;;;;;3.63;1.83;;;;;;;19.15;100.00;101018.44;5040275;28;20091;-69
2023/08/28 13:47:28;;;;;;;2.85;1.73;;;;;;;19.19;100.00;101011.25;5047556;28;20044;-70
2023/08/28 13:49:53;;;;;;;3.38;1.70;;;;;;;19.27;100.00;101017.00;5053538;28;20035;-73
2023/08/28 13:52:19;;;;;;;2.45;1.38;;;;;;;19.30;100.00;101018.38;5053411;28;20029;-71
2023/08/28 13:54:44;;;;;;;1.45;1.13;;;;;;;19.35;100.00;101021.09;5039205;28;20033;-69
2023/08/28 13:57:10;;;;;;;1.52;1.42;;;;;;;19.46;100.00;101021.88;5033006;28;20036;-68
2023/08/28 13:59:36;;;;;;;3.75;1.65;;;;;;;19.62;100.00;101008.91;5032241;28;20031;-71
2023/08/28 14:02:01;;;;;;;3.40;1.75;;;;;;;19.78;100.00;101016.00;5030942;28;20457;-70
2023/08/28 14:04:27;;;;;;;2.25;2.05;;;;;;;19.83;100.00;101013.22;5033116;28;20461;-69
2023/08/28 14:06:52;;;;;;;3.65;1.90;;;;;;;19.87;100.00;101016.22;5032480;28;20434;-72
2023/08/28 14:09:17;;;;;;;2.15;1.58;;;;;;;19.85;100.00;101015.66;5032951;28;20373;-69
2023/08/28 14:11:43;;;;;;;1.77;1.52;;;;;;;19.79;100.00;101020.41;5036932;28;20090;-70
